sensor_id;sensor_type;location;lat;lon;timestamp;temperature;humidity
3678;DHT22;1855;50.934;6.958;2022-07-23T00:00:02;19.70;72.90
3678;DHT22;1855;50.934;6.958;2022-07-23T00:02:29;19.60;73.40
3678;DHT22;1855;50.934;6.958;2022-07-23T00:04:56;19.60;73.50
3678;DHT22;1855;50.934;6.958;2022-07-23T00:07:23;19.60;73.80
3678;DHT22;1855;50.934;6.958;2022-07-23T00:09:51;19.50;74.20
3678;DHT22;1855;50.934;6.958;2022-07-23T00:12:18;19.40;75.60
3678;DHT22;1855;50.934;6.958;2022-07-23T00:14:45;19.40;75.70
3678;DHT22;1855;50.934;6.958;2022-07-23T00:17:12;19.40;75.50
3678;DHT22;1855;50.934;6.958;2022-07-23T00:19:39;19.40;74.80
3678;DHT22;1855;50.934;6.958;2022-07-23T00:22:05;19.40;74.60
3678;DHT22;1855;50.934;6.958;2022-07-23T00:24:32;19.40;74.20
3678;DHT22;1855;50.934;6.958;2022-07-23T00:27:00;19.30;75.30
3678;DHT22;1855;50.934;6.958;2022-07-23T00:29:27;19.30;76.30
3678;DHT22;1855;50.934;6.958;2022-07-23T00:31:54;19.20;78.70
3678;DHT22;1855;50.934;6.958;2022-07-23T00:34:20;19.00;80.50
3678;DHT22;1855;50.934;6.958;2022-07-23T00:36:47;18.90;81.60
3678;DHT22;1855;50.934;6.958;2022-07-23T00:39:14;18.80;82.60
3678;DHT22;1855;50.934;6.958;2022-07-23T00:41:41;18.70;84.20
3678;DHT22;1855;50.934;6.958;2022-07-23T00:44:16;18.60;83.90
3678;DHT22;1855;50.934;6.958;2022-07-23T00:46:47;18.50;84.80
3678;DHT22;1855;50.934;6.958;2022-07-23T00:49:14;18.50;84.90
3678;DHT22;1855;50.934;6.958;2022-07-23T00:51:41;18.50;84.60
3678;DHT22;1855;50.934;6.958;2022-07-23T00:54:08;18.50;84.30
3678;DHT22;1855;50.934;6.958;2022-07-23T00:56:35;18.50;83.00
3678;DHT22;1855;50.934;6.958;2022-07-23T00:59:02;18.50;83.00
3678;DHT22;1855;50.934;6.958;2022-07-23T01:01:31;18.50;82.80
3678;DHT22;1855;50.934;6.958;2022-07-23T01:03:57;18.40;81.90
3678;DHT22;1855;50.934;6.958;2022-07-23T01:06:24;18.40;83.10
3678;DHT22;1855;50.934;6.958;2022-07-23T01:08:51;18.40;83.50
3678;DHT22;1855;50.934;6.958;2022-07-23T01:11:19;18.40;84.10
3678;DHT22;1855;50.934;6.958;2022-07-23T01:13:46;18.40;84.90
3678;DHT22;1855;50.934;6.958;2022-07-23T01:16:14;18.40;85.70
3678;DHT22;1855;50.934;6.958;2022-07-23T01:18:42;18.40;88.80
3678;DHT22;1855;50.934;6.958;2022-07-23T01:21:11;18.30;90.30
3678;DHT22;1855;50.934;6.958;2022-07-23T01:23:40;18.10;90.50
3678;DHT22;1855;50.934;6.958;2022-07-23T01:26:07;18.00;91.10
3678;DHT22;1855;50.934;6.958;2022-07-23T01:28:34;17.90;91.10
3678;DHT22;1855;50.934;6.958;2022-07-23T01:31:01;17.80;91.40
3678;DHT22;1855;50.934;6.958;2022-07-23T01:33:28;17.80;91.90
3678;DHT22;1855;50.934;6.958;2022-07-23T01:35:55;17.80;92.10
3678;DHT22;1855;50.934;6.958;2022-07-23T01:38:21;17.70;92.20
3678;DHT22;1855;50.934;6.958;2022-07-23T01:40:50;17.70;92.70
3678;DHT22;1855;50.934;6.958;2022-07-23T01:43:17;17.60;93.30
3678;DHT22;1855;50.934;6.958;2022-07-23T01:45:43;17.60;93.70
3678;DHT22;1855;50.934;6.958;2022-07-23T01:48:10;17.50;93.80
3678;DHT22;1855;50.934;6.958;2022-07-23T01:50:37;17.40;94.00
3678;DHT22;1855;50.934;6.958;2022-07-23T01:53:04;17.30;94.50
3678;DHT22;1855;50.934;6.958;2022-07-23T01:55:31;17.20;94.00
3678;DHT22;1855;50.934;6.958;2022-07-23T01:57:59;17.20;94.40
3678;DHT22;1855;50.934;6.958;2022-07-23T02:00:26;17.10;94.50
3678;DHT22;1855;50.934;6.958;2022-07-23T02:02:53;17.10;94.30
3678;DHT22;1855;50.934;6.958;2022-07-23T02:05:20;17.00;94.00
3678;DHT22;1855;50.934;6.958;2022-07-23T02:07:47;16.90;94.10
3678;DHT22;1855;50.934;6.958;2022-07-23T02:10:14;16.90;94.30
3678;DHT22;1855;50.934;6.958;2022-07-23T02:12:40;16.90;94.30
3678;DHT22;1855;50.934;6.958;2022-07-23T02:15:09;16.80;94.30
3678;DHT22;1855;50.934;6.958;2022-07-23T02:17:37;16.80;94.60
3678;DHT22;1855;50.934;6.958;2022-07-23T02:20:05;16.80;94.90
3678;DHT22;1855;50.934;6.958;2022-07-23T02:22:32;16.80;95.00
3678;DHT22;1855;50.934;6.958;2022-07-23T02:24:59;16.80;95.00
3678;DHT22;1855;50.934;6.958;2022-07-23T02:27:26;16.80;95.10
3678;DHT22;1855;50.934;6.958;2022-07-23T02:29:53;16.80;95.30
3678;DHT22;1855;50.934;6.958;2022-07-23T02:32:22;16.80;95.30
3678;DHT22;1855;50.934;6.958;2022-07-23T02:34:49;16.80;95.30
3678;DHT22;1855;50.934;6.958;2022-07-23T02:37:15;16.80;95.30
3678;DHT22;1855;50.934;6.958;2022-07-23T02:39:43;16.80;95.30
3678;DHT22;1855;50.934;6.958;2022-07-23T02:42:10;16.80;95.60
3678;DHT22;1855;50.934;6.958;2022-07-23T02:44:37;16.80;95.60
3678;DHT22;1855;50.934;6.958;2022-07-23T02:47:04;16.80;95.80
3678;DHT22;1855;50.934;6.958;2022-07-23T02:49:32;16.80;95.80
3678;DHT22;1855;50.934;6.958;2022-07-23T02:52:00;16.80;95.70
3678;DHT22;1855;50.934;6.958;2022-07-23T02:54:26;16.80;95.70
3678;DHT22;1855;50.934;6.958;2022-07-23T02:56:53;16.80;95.60
3678;DHT22;1855;50.934;6.958;2022-07-23T02:59:20;16.80;95.40
3678;DHT22;1855;50.934;6.958;2022-07-23T03:01:47;16.80;95.30
3678;DHT22;1855;50.934;6.958;2022-07-23T03:04:14;16.70;95.30
3678;DHT22;1855;50.934;6.958;2022-07-23T03:06:42;16.70;95.70
3678;DHT22;1855;50.934;6.958;2022-07-23T03:09:09;16.70;95.40
3678;DHT22;1855;50.934;6.958;2022-07-23T03:11:36;16.60;95.50
3678;DHT22;1855;50.934;6.958;2022-07-23T03:14:03;16.60;95.50
3678;DHT22;1855;50.934;6.958;2022-07-23T03:16:29;16.60;95.40
3678;DHT22;1855;50.934;6.958;2022-07-23T03:18:56;16.50;95.20
3678;DHT22;1855;50.934;6.958;2022-07-23T03:21:23;16.50;95.20
3678;DHT22;1855;50.934;6.958;2022-07-23T03:23:52;16.40;95.30
3678;DHT22;1855;50.934;6.958;2022-07-23T03:26:19;16.40;95.30
3678;DHT22;1855;50.934;6.958;2022-07-23T03:28:45;16.50;95.20
3678;DHT22;1855;50.934;6.958;2022-07-23T03:31:12;16.40;95.20
3678;DHT22;1855;50.934;6.958;2022-07-23T03:33:39;16.40;95.30
3678;DHT22;1855;50.934;6.958;2022-07-23T03:36:07;16.40;95.10
3678;DHT22;1855;50.934;6.958;2022-07-23T03:38:34;16.40;94.50
3678;DHT22;1855;50.934;6.958;2022-07-23T03:41:03;16.40;94.10
3678;DHT22;1855;50.934;6.958;2022-07-23T03:43:29;16.30;94.30
3678;DHT22;1855;50.934;6.958;2022-07-23T03:45:56;16.30;94.50
3678;DHT22;1855;50.934;6.958;2022-07-23T03:48:23;16.30;94.70
3678;DHT22;1855;50.934;6.958;2022-07-23T03:50:50;16.30;94.70
3678;DHT22;1855;50.934;6.958;2022-07-23T03:53:17;16.30;94.80
3678;DHT22;1855;50.934;6.958;2022-07-23T03:55:44;16.30;94.80
3678;DHT22;1855;50.934;6.958;2022-07-23T03:58:12;16.30;94.50
3678;DHT22;1855;50.934;6.958;2022-07-23T04:00:39;16.30;94.40
3678;DHT22;1855;50.934;6.958;2022-07-23T04:03:06;16.30;94.40
3678;DHT22;1855;50.934;6.958;2022-07-23T04:05:32;16.20;94.50
3678;DHT22;1855;50.934;6.958;2022-07-23T04:08:00;16.30;94.50
3678;DHT22;1855;50.934;6.958;2022-07-23T04:10:26;16.30;94.30
3678;DHT22;1855;50.934;6.958;2022-07-23T04:12:53;16.30;94.20
3678;DHT22;1855;50.934;6.958;2022-07-23T04:15:21;16.20;94.20
3678;DHT22;1855;50.934;6.958;2022-07-23T04:17:48;16.20;94.20
3678;DHT22;1855;50.934;6.958;2022-07-23T04:20:15;16.30;94.40
3678;DHT22;1855;50.934;6.958;2022-07-23T04:22:42;16.20;94.30
3678;DHT22;1855;50.934;6.958;2022-07-23T04:25:09;16.20;94.30
3678;DHT22;1855;50.934;6.958;2022-07-23T04:27:36;16.20;94.60
3678;DHT22;1855;50.934;6.958;2022-07-23T04:30:03;16.20;94.70
3678;DHT22;1855;50.934;6.958;2022-07-23T04:32:31;16.20;94.70
3678;DHT22;1855;50.934;6.958;2022-07-23T04:34:58;16.20;94.60
3678;DHT22;1855;50.934;6.958;2022-07-23T04:37:25;16.20;94.60
3678;DHT22;1855;50.934;6.958;2022-07-23T04:39:52;16.20;94.70
3678;DHT22;1855;50.934;6.958;2022-07-23T04:42:19;16.30;94.40
3678;DHT22;1855;50.934;6.958;2022-07-23T04:44:45;16.20;94.20
3678;DHT22;1855;50.934;6.958;2022-07-23T04:47:12;16.30;94.10
3678;DHT22;1855;50.934;6.958;2022-07-23T04:49:40;16.30;94.00
3678;DHT22;1855;50.934;6.958;2022-07-23T04:52:07;16.30;94.00
3678;DHT22;1855;50.934;6.958;2022-07-23T04:54:34;16.30;94.20
3678;DHT22;1855;50.934;6.958;2022-07-23T04:57:01;16.30;94.00
3678;DHT22;1855;50.934;6.958;2022-07-23T04:59:28;16.30;93.90
3678;DHT22;1855;50.934;6.958;2022-07-23T05:01:54;16.30;93.90
3678;DHT22;1855;50.934;6.958;2022-07-23T05:04:21;16.30;93.40
3678;DHT22;1855;50.934;6.958;2022-07-23T05:06:49;16.30;93.30
3678;DHT22;1855;50.934;6.958;2022-07-23T05:09:16;16.30;93.60
3678;DHT22;1855;50.934;6.958;2022-07-23T05:11:43;16.30;93.90
3678;DHT22;1855;50.934;6.958;2022-07-23T05:14:10;16.40;94.30
3678;DHT22;1855;50.934;6.958;2022-07-23T05:16:37;16.40;94.00
3678;DHT22;1855;50.934;6.958;2022-07-23T05:19:04;16.40;94.10
3678;DHT22;1855;50.934;6.958;2022-07-23T05:21:31;16.50;94.20
3678;DHT22;1855;50.934;6.958;2022-07-23T05:23:59;16.50;94.20
3678;DHT22;1855;50.934;6.958;2022-07-23T05:26:26;16.50;94.20
3678;DHT22;1855;50.934;6.958;2022-07-23T05:28:53;16.60;94.30
3678;DHT22;1855;50.934;6.958;2022-07-23T05:31:20;16.60;94.40
3678;DHT22;1855;50.934;6.958;2022-07-23T05:33:47;16.70;94.30
3678;DHT22;1855;50.934;6.958;2022-07-23T05:36:14;16.70;94.20
3678;DHT22;1855;50.934;6.958;2022-07-23T05:38:40;16.80;94.20
3678;DHT22;1855;50.934;6.958;2022-07-23T05:41:09;16.90;94.10
3678;DHT22;1855;50.934;6.958;2022-07-23T05:43:35;16.90;94.00
3678;DHT22;1855;50.934;6.958;2022-07-23T05:46:02;17.00;93.70
3678;DHT22;1855;50.934;6.958;2022-07-23T05:48:29;17.00;93.60
3678;DHT22;1855;50.934;6.958;2022-07-23T05:50:57;17.00;93.50
3678;DHT22;1855;50.934;6.958;2022-07-23T05:53:24;17.10;92.90
3678;DHT22;1855;50.934;6.958;2022-07-23T05:55:51;17.00;92.40
3678;DHT22;1855;50.934;6.958;2022-07-23T05:58:19;17.00;92.40
3678;DHT22;1855;50.934;6.958;2022-07-23T06:00:46;17.00;92.90
3678;DHT22;1855;50.934;6.958;2022-07-23T06:03:12;17.00;93.10
3678;DHT22;1855;50.934;6.958;2022-07-23T06:05:39;17.10;93.30
3678;DHT22;1855;50.934;6.958;2022-07-23T06:08:06;17.10;93.40
3678;DHT22;1855;50.934;6.958;2022-07-23T06:10:33;17.20;93.40
3678;DHT22;1855;50.934;6.958;2022-07-23T06:13:00;17.20;93.20
3678;DHT22;1855;50.934;6.958;2022-07-23T06:15:29;17.30;93.60
3678;DHT22;1855;50.934;6.958;2022-07-23T06:17:56;17.40;92.70
3678;DHT22;1855;50.934;6.958;2022-07-23T06:20:23;17.40;91.80
3678;DHT22;1855;50.934;6.958;2022-07-23T06:22:49;17.40;91.70
3678;DHT22;1855;50.934;6.958;2022-07-23T06:25:16;17.50;91.70
3678;DHT22;1855;50.934;6.958;2022-07-23T06:27:43;17.50;91.50
3678;DHT22;1855;50.934;6.958;2022-07-23T06:30:11;17.50;91.00
3678;DHT22;1855;50.934;6.958;2022-07-23T06:32:40;17.50;91.40
3678;DHT22;1855;50.934;6.958;2022-07-23T06:35:07;17.60;91.70
3678;DHT22;1855;50.934;6.958;2022-07-23T06:37:34;17.70;91.50
3678;DHT22;1855;50.934;6.958;2022-07-23T06:40:01;17.80;91.20
3678;DHT22;1855;50.934;6.958;2022-07-23T06:42:28;17.80;90.70
3678;DHT22;1855;50.934;6.958;2022-07-23T06:44:55;17.90;90.70
3678;DHT22;1855;50.934;6.958;2022-07-23T06:47:22;18.00;90.80
3678;DHT22;1855;50.934;6.958;2022-07-23T06:49:50;18.00;90.10
3678;DHT22;1855;50.934;6.958;2022-07-23T06:52:17;18.10;89.20
3678;DHT22;1855;50.934;6.958;2022-07-23T06:54:44;18.10;89.70
3678;DHT22;1855;50.934;6.958;2022-07-23T06:57:10;18.20;90.10
3678;DHT22;1855;50.934;6.958;2022-07-23T06:59:37;18.30;90.20
3678;DHT22;1855;50.934;6.958;2022-07-23T07:02:06;18.50;90.20
3678;DHT22;1855;50.934;6.958;2022-07-23T07:04:33;18.60;88.70
3678;DHT22;1855;50.934;6.958;2022-07-23T07:07:01;18.80;86.70
3678;DHT22;1855;50.934;6.958;2022-07-23T07:09:28;18.90;86.80
3678;DHT22;1855;50.934;6.958;2022-07-23T07:11:55;19.00;85.70
3678;DHT22;1855;50.934;6.958;2022-07-23T07:14:22;19.10;85.30
3678;DHT22;1855;50.934;6.958;2022-07-23T07:16:49;19.20;84.40
3678;DHT22;1855;50.934;6.958;2022-07-23T07:19:16;19.40;83.80
3678;DHT22;1855;50.934;6.958;2022-07-23T07:21:42;19.50;82.80
3678;DHT22;1855;50.934;6.958;2022-07-23T07:24:10;19.60;81.40
3678;DHT22;1855;50.934;6.958;2022-07-23T07:26:37;19.70;80.90
3678;DHT22;1855;50.934;6.958;2022-07-23T07:29:05;19.70;81.90
3678;DHT22;1855;50.934;6.958;2022-07-23T07:31:32;19.80;80.40
3678;DHT22;1855;50.934;6.958;2022-07-23T07:33:59;20.00;80.30
3678;DHT22;1855;50.934;6.958;2022-07-23T07:36:26;20.20;79.20
3678;DHT22;1855;50.934;6.958;2022-07-23T07:38:53;20.40;78.30
3678;DHT22;1855;50.934;6.958;2022-07-23T07:41:21;20.60;76.80
3678;DHT22;1855;50.934;6.958;2022-07-23T07:43:49;20.70;76.20
3678;DHT22;1855;50.934;6.958;2022-07-23T07:46:16;20.90;75.70
3678;DHT22;1855;50.934;6.958;2022-07-23T07:48:43;21.00;75.20
3678;DHT22;1855;50.934;6.958;2022-07-23T07:51:10;21.10;73.00
3678;DHT22;1855;50.934;6.958;2022-07-23T07:53:36;21.10;73.00
3678;DHT22;1855;50.934;6.958;2022-07-23T07:56:04;21.10;73.50
3678;DHT22;1855;50.934;6.958;2022-07-23T07:58:32;21.20;73.00
3678;DHT22;1855;50.934;6.958;2022-07-23T08:00:59;21.10;72.40
3678;DHT22;1855;50.934;6.958;2022-07-23T08:03:27;20.90;74.20
3678;DHT22;1855;50.934;6.958;2022-07-23T08:05:54;21.00;74.20
3678;DHT22;1855;50.934;6.958;2022-07-23T08:08:21;21.00;72.00
3678;DHT22;1855;50.934;6.958;2022-07-23T08:10:48;21.10;71.60
3678;DHT22;1855;50.934;6.958;2022-07-23T08:13:15;21.10;71.50
3678;DHT22;1855;50.934;6.958;2022-07-23T08:15:44;21.30;71.10
3678;DHT22;1855;50.934;6.958;2022-07-23T08:18:11;21.60;68.80
3678;DHT22;1855;50.934;6.958;2022-07-23T08:20:38;21.70;69.00
3678;DHT22;1855;50.934;6.958;2022-07-23T08:23:06;21.60;69.70
3678;DHT22;1855;50.934;6.958;2022-07-23T08:25:36;21.50;67.90
3678;DHT22;1855;50.934;6.958;2022-07-23T08:28:04;21.40;70.00
3678;DHT22;1855;50.934;6.958;2022-07-23T08:30:32;21.30;69.90
3678;DHT22;1855;50.934;6.958;2022-07-23T08:33:03;21.30;70.40
3678;DHT22;1855;50.934;6.958;2022-07-23T08:35:32;21.40;71.10
3678;DHT22;1855;50.934;6.958;2022-07-23T08:38:01;21.50;70.60
3678;DHT22;1855;50.934;6.958;2022-07-23T08:40:30;22.00;68.50
3678;DHT22;1855;50.934;6.958;2022-07-23T08:42:58;22.50;67.00
3678;DHT22;1855;50.934;6.958;2022-07-23T08:45:26;22.90;64.60
3678;DHT22;1855;50.934;6.958;2022-07-23T08:47:54;23.30;61.70
3678;DHT22;1855;50.934;6.958;2022-07-23T08:50:24;23.40;61.80
3678;DHT22;1855;50.934;6.958;2022-07-23T08:52:52;23.50;62.60
3678;DHT22;1855;50.934;6.958;2022-07-23T08:55:21;23.70;61.70
3678;DHT22;1855;50.934;6.958;2022-07-23T08:57:49;24.10;59.90
3678;DHT22;1855;50.934;6.958;2022-07-23T09:00:17;24.30;59.40
3678;DHT22;1855;50.934;6.958;2022-07-23T09:02:45;24.70;58.40
3678;DHT22;1855;50.934;6.958;2022-07-23T09:05:13;24.90;54.90
3678;DHT22;1855;50.934;6.958;2022-07-23T09:08:09;25.00;56.10
3678;DHT22;1855;50.934;6.958;2022-07-23T09:10:50;24.90;54.30
3678;DHT22;1855;50.934;6.958;2022-07-23T09:13:30;24.70;56.60
3678;DHT22;1855;50.934;6.958;2022-07-23T09:15:58;24.30;56.90
3678;DHT22;1855;50.934;6.958;2022-07-23T09:18:34;24.10;58.40
3678;DHT22;1855;50.934;6.958;2022-07-23T09:21:08;24.00;57.40
3678;DHT22;1855;50.934;6.958;2022-07-23T09:23:41;24.00;58.60
3678;DHT22;1855;50.934;6.958;2022-07-23T09:26:18;24.20;56.00
3678;DHT22;1855;50.934;6.958;2022-07-23T09:28:54;24.40;56.20
3678;DHT22;1855;50.934;6.958;2022-07-23T09:31:22;24.50;56.60
3678;DHT22;1855;50.934;6.958;2022-07-23T09:33:49;24.80;55.60
3678;DHT22;1855;50.934;6.958;2022-07-23T09:36:27;24.90;55.20
3678;DHT22;1855;50.934;6.958;2022-07-23T09:38:55;25.20;54.40
3678;DHT22;1855;50.934;6.958;2022-07-23T09:41:22;25.40;54.00
3678;DHT22;1855;50.934;6.958;2022-07-23T09:43:55;25.40;51.40
3678;DHT22;1855;50.934;6.958;2022-07-23T09:46:23;25.20;52.40
3678;DHT22;1855;50.934;6.958;2022-07-23T09:48:51;24.90;54.20
3678;DHT22;1855;50.934;6.958;2022-07-23T09:51:18;24.80;55.40
3678;DHT22;1855;50.934;6.958;2022-07-23T09:53:49;24.90;54.70
3678;DHT22;1855;50.934;6.958;2022-07-23T09:56:17;25.20;54.10
3678;DHT22;1855;50.934;6.958;2022-07-23T09:58:50;25.60;53.20
3678;DHT22;1855;50.934;6.958;2022-07-23T10:01:17;25.90;52.20
3678;DHT22;1855;50.934;6.958;2022-07-23T10:03:45;26.30;51.40
3678;DHT22;1855;50.934;6.958;2022-07-23T10:06:13;26.60;49.90
3678;DHT22;1855;50.934;6.958;2022-07-23T10:08:41;26.80;49.90
3678;DHT22;1855;50.934;6.958;2022-07-23T10:11:09;26.90;49.00
3678;DHT22;1855;50.934;6.958;2022-07-23T10:13:40;26.80;48.40
3678;DHT22;1855;50.934;6.958;2022-07-23T10:16:18;26.60;47.80
3678;DHT22;1855;50.934;6.958;2022-07-23T10:18:46;26.50;46.60
3678;DHT22;1855;50.934;6.958;2022-07-23T10:21:18;26.50;47.40
3678;DHT22;1855;50.934;6.958;2022-07-23T10:23:57;26.60;47.40
3678;DHT22;1855;50.934;6.958;2022-07-23T10:26:32;26.90;45.70
3678;DHT22;1855;50.934;6.958;2022-07-23T10:29:10;27.00;45.90
3678;DHT22;1855;50.934;6.958;2022-07-23T10:31:49;27.00;45.20
3678;DHT22;1855;50.934;6.958;2022-07-23T10:34:21;27.00;47.00
3678;DHT22;1855;50.934;6.958;2022-07-23T10:36:54;27.10;46.70
3678;DHT22;1855;50.934;6.958;2022-07-23T10:39:24;27.10;46.30
3678;DHT22;1855;50.934;6.958;2022-07-23T10:41:52;27.00;46.90
3678;DHT22;1855;50.934;6.958;2022-07-23T10:44:39;27.30;46.30
3678;DHT22;1855;50.934;6.958;2022-07-23T10:47:08;27.50;45.00
3678;DHT22;1855;50.934;6.958;2022-07-23T10:49:53;27.80;44.00
3678;DHT22;1855;50.934;6.958;2022-07-23T10:52:25;28.20;42.70
3678;DHT22;1855;50.934;6.958;2022-07-23T10:54:54;28.40;42.60
3678;DHT22;1855;50.934;6.958;2022-07-23T10:57:21;28.50;41.00
3678;DHT22;1855;50.934;6.958;2022-07-23T11:00:23;28.50;42.30
3678;DHT22;1855;50.934;6.958;2022-07-23T11:02:52;28.60;40.70
3678;DHT22;1855;50.934;6.958;2022-07-23T11:05:20;28.40;42.60
3678;DHT22;1855;50.934;6.958;2022-07-23T11:08:10;28.40;41.20
3678;DHT22;1855;50.934;6.958;2022-07-23T11:10:38;28.50;42.30
3678;DHT22;1855;50.934;6.958;2022-07-23T11:13:27;28.60;41.80
3678;DHT22;1855;50.934;6.958;2022-07-23T11:16:14;28.70;41.50
3678;DHT22;1855;50.934;6.958;2022-07-23T11:19:04;29.00;41.40
3678;DHT22;1855;50.934;6.958;2022-07-23T11:21:48;29.20;38.60
3678;DHT22;1855;50.934;6.958;2022-07-23T11:24:23;29.20;39.30
3678;DHT22;1855;50.934;6.958;2022-07-23T11:27:04;29.30;38.50
3678;DHT22;1855;50.934;6.958;2022-07-23T11:29:47;29.50;38.30
3678;DHT22;1855;50.934;6.958;2022-07-23T11:32:39;29.50;38.20
3678;DHT22;1855;50.934;6.958;2022-07-23T11:35:23;29.50;38.90
3678;DHT22;1855;50.934;6.958;2022-07-23T11:37:51;29.60;37.70
3678;DHT22;1855;50.934;6.958;2022-07-23T11:40:25;29.50;37.50
3678;DHT22;1855;50.934;6.958;2022-07-23T11:42:56;29.50;38.40
3678;DHT22;1855;50.934;6.958;2022-07-23T11:45:24;29.70;38.90
3678;DHT22;1855;50.934;6.958;2022-07-23T11:47:52;29.90;38.40
3678;DHT22;1855;50.934;6.958;2022-07-23T11:50:23;30.20;38.10
3678;DHT22;1855;50.934;6.958;2022-07-23T11:52:50;30.40;36.50
3678;DHT22;1855;50.934;6.958;2022-07-23T11:55:17;30.30;36.30
3678;DHT22;1855;50.934;6.958;2022-07-23T11:57:45;30.20;36.30
3678;DHT22;1855;50.934;6.958;2022-07-23T12:00:13;30.10;37.10
3678;DHT22;1855;50.934;6.958;2022-07-23T12:02:42;30.10;36.50
3678;DHT22;1855;50.934;6.958;2022-07-23T12:05:13;30.10;36.90
3678;DHT22;1855;50.934;6.958;2022-07-23T12:07:42;30.20;38.20
3678;DHT22;1855;50.934;6.958;2022-07-23T12:10:13;30.40;37.30
3678;DHT22;1855;50.934;6.958;2022-07-23T12:12:42;30.40;36.50
3678;DHT22;1855;50.934;6.958;2022-07-23T12:15:11;30.40;35.70
3678;DHT22;1855;50.934;6.958;2022-07-23T12:17:39;30.30;36.20
3678;DHT22;1855;50.934;6.958;2022-07-23T12:20:09;30.20;36.50
3678;DHT22;1855;50.934;6.958;2022-07-23T12:22:39;30.00;35.90
3678;DHT22;1855;50.934;6.958;2022-07-23T12:25:08;29.80;35.90
3678;DHT22;1855;50.934;6.958;2022-07-23T12:27:36;29.80;37.20
3678;DHT22;1855;50.934;6.958;2022-07-23T12:30:18;30.00;36.20
3678;DHT22;1855;50.934;6.958;2022-07-23T12:32:47;30.30;36.00
3678;DHT22;1855;50.934;6.958;2022-07-23T12:35:14;30.50;35.20
3678;DHT22;1855;50.934;6.958;2022-07-23T12:37:44;30.60;34.40
3678;DHT22;1855;50.934;6.958;2022-07-23T12:40:22;30.60;34.30
3678;DHT22;1855;50.934;6.958;2022-07-23T12:42:50;30.90;31.90
3678;DHT22;1855;50.934;6.958;2022-07-23T12:45:17;31.00;30.70
3678;DHT22;1855;50.934;6.958;2022-07-23T12:48:02;30.80;32.50
3678;DHT22;1855;50.934;6.958;2022-07-23T12:50:39;30.80;33.30
3678;DHT22;1855;50.934;6.958;2022-07-23T12:53:10;30.50;31.90
3678;DHT22;1855;50.934;6.958;2022-07-23T12:55:38;30.40;31.50
3678;DHT22;1855;50.934;6.958;2022-07-23T12:58:07;30.40;31.40
3678;DHT22;1855;50.934;6.958;2022-07-23T13:00:50;30.40;33.10
3678;DHT22;1855;50.934;6.958;2022-07-23T13:03:24;30.50;33.60
3678;DHT22;1855;50.934;6.958;2022-07-23T13:05:52;30.60;32.40
3678;DHT22;1855;50.934;6.958;2022-07-23T13:08:20;30.70;33.20
3678;DHT22;1855;50.934;6.958;2022-07-23T13:10:48;30.80;33.20
3678;DHT22;1855;50.934;6.958;2022-07-23T13:13:17;30.90;31.30
3678;DHT22;1855;50.934;6.958;2022-07-23T13:15:44;31.00;32.10
3678;DHT22;1855;50.934;6.958;2022-07-23T13:18:11;31.00;31.10
3678;DHT22;1855;50.934;6.958;2022-07-23T13:20:38;31.00;32.50
3678;DHT22;1855;50.934;6.958;2022-07-23T13:23:05;31.00;32.90
3678;DHT22;1855;50.934;6.958;2022-07-23T13:25:33;31.10;34.60
3678;DHT22;1855;50.934;6.958;2022-07-23T13:28:00;31.00;31.10
3678;DHT22;1855;50.934;6.958;2022-07-23T13:30:27;30.80;31.50
3678;DHT22;1855;50.934;6.958;2022-07-23T13:32:54;30.80;31.60
3678;DHT22;1855;50.934;6.958;2022-07-23T13:35:22;30.60;31.80
3678;DHT22;1855;50.934;6.958;2022-07-23T13:37:49;30.30;34.30
3678;DHT22;1855;50.934;6.958;2022-07-23T13:40:16;30.20;33.30
3678;DHT22;1855;50.934;6.958;2022-07-23T13:42:44;30.30;33.00
3678;DHT22;1855;50.934;6.958;2022-07-23T13:45:11;30.50;33.80
3678;DHT22;1855;50.934;6.958;2022-07-23T13:47:38;30.80;33.70
3678;DHT22;1855;50.934;6.958;2022-07-23T13:50:06;31.00;33.70
3678;DHT22;1855;50.934;6.958;2022-07-23T13:52:33;31.20;33.30
3678;DHT22;1855;50.934;6.958;2022-07-23T13:55:00;31.30;33.00
3678;DHT22;1855;50.934;6.958;2022-07-23T13:57:27;31.40;33.00
3678;DHT22;1855;50.934;6.958;2022-07-23T13:59:55;31.30;32.20
3678;DHT22;1855;50.934;6.958;2022-07-23T14:02:22;31.20;32.80
3678;DHT22;1855;50.934;6.958;2022-07-23T14:04:49;31.30;32.90
3678;DHT22;1855;50.934;6.958;2022-07-23T14:07:17;31.40;32.90
3678;DHT22;1855;50.934;6.958;2022-07-23T14:09:44;31.50;32.00
3678;DHT22;1855;50.934;6.958;2022-07-23T14:12:11;31.60;30.40
3678;DHT22;1855;50.934;6.958;2022-07-23T14:14:37;31.70;32.50
3678;DHT22;1855;50.934;6.958;2022-07-23T14:17:06;31.80;32.50
3678;DHT22;1855;50.934;6.958;2022-07-23T14:19:34;31.70;30.80
3678;DHT22;1855;50.934;6.958;2022-07-23T14:22:01;31.60;30.40
3678;DHT22;1855;50.934;6.958;2022-07-23T14:24:28;31.70;30.70
3678;DHT22;1855;50.934;6.958;2022-07-23T14:26:55;31.70;30.90
3678;DHT22;1855;50.934;6.958;2022-07-23T14:29:22;31.70;31.20
3678;DHT22;1855;50.934;6.958;2022-07-23T14:31:49;31.70;31.60
3678;DHT22;1855;50.934;6.958;2022-07-23T14:34:17;31.70;31.00
3678;DHT22;1855;50.934;6.958;2022-07-23T14:36:44;31.60;31.00
3678;DHT22;1855;50.934;6.958;2022-07-23T14:39:11;31.60;30.00
3678;DHT22;1855;50.934;6.958;2022-07-23T14:41:38;31.60;30.10
3678;DHT22;1855;50.934;6.958;2022-07-23T14:44:05;31.50;30.40
3678;DHT22;1855;50.934;6.958;2022-07-23T14:46:32;31.40;30.90
3678;DHT22;1855;50.934;6.958;2022-07-23T14:49:01;31.20;31.40
3678;DHT22;1855;50.934;6.958;2022-07-23T14:51:30;31.10;32.10
3678;DHT22;1855;50.934;6.958;2022-07-23T14:53:56;31.00;31.10
3678;DHT22;1855;50.934;6.958;2022-07-23T14:56:24;31.00;31.30
3678;DHT22;1855;50.934;6.958;2022-07-23T14:58:51;31.00;32.00
3678;DHT22;1855;50.934;6.958;2022-07-23T15:01:17;31.00;32.50
3678;DHT22;1855;50.934;6.958;2022-07-23T15:03:44;30.90;31.90
3678;DHT22;1855;50.934;6.958;2022-07-23T15:06:11;31.00;31.80
3678;DHT22;1855;50.934;6.958;2022-07-23T15:08:39;31.00;31.40
3678;DHT22;1855;50.934;6.958;2022-07-23T15:11:06;30.90;31.70
3678;DHT22;1855;50.934;6.958;2022-07-23T15:13:34;31.00;29.80
3678;DHT22;1855;50.934;6.958;2022-07-23T15:16:02;31.00;29.70
3678;DHT22;1855;50.934;6.958;2022-07-23T15:18:29;30.90;31.20
3678;DHT22;1855;50.934;6.958;2022-07-23T15:20:56;30.90;30.90
3678;DHT22;1855;50.934;6.958;2022-07-23T15:23:23;30.70;32.30
3678;DHT22;1855;50.934;6.958;2022-07-23T15:25:51;30.80;31.80
3678;DHT22;1855;50.934;6.958;2022-07-23T15:28:18;31.00;31.30
3678;DHT22;1855;50.934;6.958;2022-07-23T15:30:45;31.10;31.00
3678;DHT22;1855;50.934;6.958;2022-07-23T15:33:12;31.10;30.90
3678;DHT22;1855;50.934;6.958;2022-07-23T15:35:38;31.20;31.90
3678;DHT22;1855;50.934;6.958;2022-07-23T15:38:05;31.20;32.20
3678;DHT22;1855;50.934;6.958;2022-07-23T15:40:32;31.10;31.40
3678;DHT22;1855;50.934;6.958;2022-07-23T15:43:00;31.00;31.90
3678;DHT22;1855;50.934;6.958;2022-07-23T15:45:27;30.90;31.70
3678;DHT22;1855;50.934;6.958;2022-07-23T15:47:54;30.90;32.10
3678;DHT22;1855;50.934;6.958;2022-07-23T15:50:21;31.00;34.00
3678;DHT22;1855;50.934;6.958;2022-07-23T15:52:48;31.00;32.10
3678;DHT22;1855;50.934;6.958;2022-07-23T15:55:15;31.00;31.90
3678;DHT22;1855;50.934;6.958;2022-07-23T15:57:42;31.00;32.80
3678;DHT22;1855;50.934;6.958;2022-07-23T16:00:11;31.00;32.00
3678;DHT22;1855;50.934;6.958;2022-07-23T16:02:38;30.90;32.40
3678;DHT22;1855;50.934;6.958;2022-07-23T16:05:05;30.80;31.90
3678;DHT22;1855;50.934;6.958;2022-07-23T16:07:32;30.80;31.70
3678;DHT22;1855;50.934;6.958;2022-07-23T16:10:03;30.70;32.20